Lyntupy, Belarus
Current Conditions -  °F | °C
As of 7:20 PM on Thursday 30 Oct 2014 (Local Time) from EYVI Reporting Station
Haze Haze  
Wind Chill: 36°   Ceiling: 1000
Heat Index: 41°   Visibility: 1.8mi
Dew Point: 36°   Wind: 7mph
Humidity: 81%   Direction: 300°WNW
Pressure: 30.15"   Gusts: NA
Location:  55.05°N, 26.31°E
Report Text: EYVI 301720Z 30006KT 2900 BR OVC010 05/02 Q1021 NOSIG
Loading
Personal Weather Stations






























Interactive Weather Map
Tropical Storm Tracking
New forecast layout! Learn more

10-Day Weather Forecast

Advertisements
Track Severe Weather on mobile